Time;durP1;ratioP1;P1;durP2;ratioP2;P2;SDS_P1;SDS_P2;PMS_P1;PMS_P2;Temp;Humidity;BMP_temperature;BMP_pressure;BME280_temperature;BME280_humidity;BME280_pressure;Samples;Min_cycle;Max_cycle;Signal;HPM_P1;HPM_P2
2022/08/09 00:01:48;;;;;;;5.90;1.77;;;18.10;99.90;;;;;;5023700;28;20040;-61
2022/08/09 00:04:18;;;;;;;6.28;2.03;;;18.40;99.90;;;;;;5022036;28;20033;-61
2022/08/09 00:06:44;;;;;;;4.20;2.20;;;18.30;99.90;;;;;;5024166;28;20053;-60
2022/08/09 00:09:11;;;;;;;4.82;2.08;;;18.40;99.90;;;;;;5025972;28;20037;-60
2022/08/09 00:11:37;;;;;;;4.85;2.10;;;18.30;99.90;;;;;;5025770;28;20038;-61
2022/08/09 00:14:03;;;;;;;6.28;1.98;;;18.10;99.90;;;;;;5027523;28;20447;-60
2022/08/09 00:16:29;;;;;;;4.88;1.92;;;18.20;99.90;;;;;;5028472;28;20033;-60
2022/08/09 00:18:54;;;;;;;8.60;2.42;;;18.20;99.90;;;;;;5021900;28;20707;-60
2022/08/09 00:21:20;;;;;;;7.25;2.20;;;17.90;99.90;;;;;;5021822;28;20024;-61
2022/08/09 00:23:46;;;;;;;8.55;2.08;;;17.90;99.90;;;;;;5023010;28;20427;-61
2022/08/09 00:26:11;;;;;;;5.32;2.15;;;17.90;99.90;;;;;;5022623;28;20026;-61
2022/08/09 00:28:38;;;;;;;4.75;2.20;;;18.00;99.90;;;;;;5021462;28;20017;-61
2022/08/09 00:31:04;;;;;;;4.03;1.77;;;18.00;99.90;;;;;;5025823;28;20526;-60
2022/08/09 00:33:30;;;;;;;6.85;2.30;;;17.80;99.90;;;;;;5028163;28;20105;-61
2022/08/09 00:35:58;;;;;;;8.90;2.33;;;17.90;99.90;;;;;;5025663;28;20037;-60
2022/08/09 00:38:24;;;;;;;5.85;2.40;;;17.80;99.90;;;;;;5022278;28;20069;-60
2022/08/09 00:40:49;;;;;;;6.68;2.13;;;17.80;99.90;;;;;;5031577;28;20111;-61
2022/08/09 00:43:15;;;;;;;7.32;2.33;;;17.80;99.90;;;;;;5025186;28;20048;-61
2022/08/09 00:45:40;;;;;;;9.18;3.10;;;17.80;99.90;;;;;;5026630;28;20506;-61
2022/08/09 00:48:06;;;;;;;6.07;2.17;;;17.90;99.90;;;;;;5026287;28;20444;-61
2022/08/09 00:50:32;;;;;;;4.07;2.10;;;17.80;99.90;;;;;;5031686;28;20029;-60
2022/08/09 00:52:58;;;;;;;6.80;2.22;;;17.80;99.90;;;;;;5025609;28;20029;-60
2022/08/09 00:55:24;;;;;;;5.43;2.53;;;17.80;99.90;;;;;;5027543;28;20231;-61
2022/08/09 00:57:49;;;;;;;10.00;2.70;;;17.80;99.90;;;;;;5025827;28;20021;-60
2022/08/09 01:00:16;;;;;;;4.75;2.60;;;17.70;99.90;;;;;;5025217;28;20040;-60
2022/08/09 01:02:47;;;;;;;5.40;2.17;;;17.70;99.90;;;;;;5020082;28;20374;-61
2022/08/09 01:05:50;;;;;;;4.72;2.33;;;17.80;99.90;;;;;;5024733;28;20026;-61
2022/08/09 01:08:31;;;;;;;4.77;2.63;;;17.70;99.90;;;;;;5026578;28;20059;-61
2022/08/09 01:11:04;;;;;;;8.05;2.40;;;17.60;99.90;;;;;;5029938;28;20033;-61
2022/08/09 01:13:45;;;;;;;4.63;2.13;;;17.70;99.90;;;;;;5028814;28;20083;-61
2022/08/09 01:16:11;;;;;;;5.65;2.15;;;17.70;99.90;;;;;;5023501;28;20645;-60
2022/08/09 01:18:43;;;;;;;5.47;2.40;;;17.70;99.90;;;;;;5025542;28;20043;-61
2022/08/09 01:21:26;;;;;;;6.55;2.58;;;17.70;99.90;;;;;;5025706;28;20033;-60
2022/08/09 01:23:58;;;;;;;4.40;2.42;;;17.70;99.90;;;;;;5028549;28;20060;-60
2022/08/09 01:26:45;;;;;;;5.60;2.42;;;17.70;99.90;;;;;;5024569;28;20072;-61
2022/08/09 01:29:13;;;;;;;5.50;2.33;;;17.60;99.90;;;;;;5025726;28;20079;-60
2022/08/09 01:31:42;;;;;;;4.65;2.20;;;17.50;99.90;;;;;;5025939;28;20033;-60
2022/08/09 01:34:11;;;;;;;7.05;2.50;;;17.60;99.90;;;;;;5024574;28;20034;-60
2022/08/09 01:36:39;;;;;;;6.35;2.17;;;17.60;99.90;;;;;;5020184;28;20021;-61
2022/08/09 01:39:05;;;;;;;4.57;2.30;;;17.60;99.90;;;;;;5024867;28;20034;-61
2022/08/09 01:41:35;;;;;;;4.10;2.40;;;17.50;99.90;;;;;;5022356;28;20546;-61
2022/08/09 01:44:02;;;;;;;4.50;2.40;;;17.60;99.90;;;;;;5027413;28;20361;-61
2022/08/09 01:46:32;;;;;;;5.35;2.08;;;17.60;99.90;;;;;;5027809;28;20026;-61
2022/08/09 01:49:10;;;;;;;7.07;2.70;;;17.60;99.90;;;;;;5030351;28;20054;-61
2022/08/09 01:51:39;;;;;;;7.55;2.60;;;17.50;99.90;;;;;;5025712;28;20029;-60
2022/08/09 01:54:06;;;;;;;8.88;2.90;;;17.50;99.90;;;;;;5029493;28;20033;-60
2022/08/09 01:56:35;;;;;;;5.68;2.40;;;17.40;99.90;;;;;;5028692;28;20026;-60
2022/08/09 01:59:06;;;;;;;6.85;2.70;;;17.60;99.90;;;;;;5024254;28;20021;-60
2022/08/09 02:01:33;;;;;;;7.93;2.60;;;17.50;99.90;;;;;;5027847;28;20022;-60
2022/08/09 02:04:00;;;;;;;7.30;2.90;;;17.30;99.90;;;;;;5023885;28;20536;-60
2022/08/09 02:09:14;;;;;;;5.57;2.60;;;17.40;99.90;;;;;;5023193;28;20043;-61
2022/08/09 02:11:39;;;;;;;8.45;3.17;;;17.30;99.90;;;;;;5031369;28;20033;-60
2022/08/09 02:14:07;;;;;;;8.07;2.88;;;17.30;99.90;;;;;;5024450;28;20506;-61
2022/08/09 02:16:36;;;;;;;6.80;2.78;;;17.40;99.90;;;;;;5028540;28;20440;-60
2022/08/09 02:19:03;;;;;;;7.25;3.08;;;17.30;99.90;;;;;;5023195;28;20033;-60
2022/08/09 02:21:38;;;;;;;7.38;2.92;;;17.30;99.90;;;;;;5026509;28;20029;-61
2022/08/09 02:24:06;;;;;;;5.90;3.00;;;17.40;99.90;;;;;;5024491;28;20049;-60
2022/08/09 02:26:34;;;;;;;8.38;3.13;;;17.30;99.90;;;;;;5031370;28;20025;-60
2022/08/09 02:29:19;;;;;;;7.90;2.92;;;17.30;99.90;;;;;;5027668;28;20032;-61
2022/08/09 02:31:46;;;;;;;6.57;3.10;;;17.30;99.90;;;;;;5024347;28;20036;-61
2022/08/09 02:34:17;;;;;;;4.55;2.47;;;17.10;99.90;;;;;;5023300;28;20060;-60
2022/08/09 02:36:48;;;;;;;5.30;2.58;;;17.10;99.90;;;;;;5021581;28;20029;-61
2022/08/09 02:39:21;;;;;;;6.53;3.03;;;17.10;99.90;;;;;;5021760;28;20126;-61
2022/08/09 02:42:02;;;;;;;4.85;2.83;;;17.20;99.90;;;;;;5022197;28;20026;-60
2022/08/09 02:44:36;;;;;;;8.80;2.90;;;17.00;99.90;;;;;;5022562;28;20032;-60
2022/08/09 02:47:09;;;;;;;7.82;2.95;;;16.90;99.90;;;;;;5026300;28;20029;-61
2022/08/09 02:49:56;;;;;;;5.78;2.80;;;17.10;99.90;;;;;;5029488;28;20112;-60
2022/08/09 02:52:26;;;;;;;7.18;3.38;;;17.00;99.90;;;;;;5024163;28;20402;-61
2022/08/09 02:54:53;;;;;;;6.22;3.20;;;16.90;99.90;;;;;;5022136;28;20041;-61
2022/08/09 02:57:20;;;;;;;8.52;3.30;;;16.80;99.90;;;;;;5026927;28;20075;-61
2022/08/09 02:59:47;;;;;;;5.88;3.10;;;16.80;99.90;;;;;;5022092;28;20508;-61
2022/08/09 03:02:15;;;;;;;6.28;3.25;;;16.80;99.90;;;;;;5019061;28;20030;-60
2022/08/09 03:04:42;;;;;;;6.40;3.13;;;16.70;99.90;;;;;;5026168;28;20469;-61
2022/08/09 03:07:09;;;;;;;8.38;3.40;;;16.70;99.90;;;;;;5029764;28;20068;-61
2022/08/09 03:09:36;;;;;;;6.88;3.08;;;16.90;99.90;;;;;;5027205;28;20113;-61
2022/08/09 03:12:03;;;;;;;6.25;3.08;;;16.80;99.90;;;;;;5023721;28;20053;-61
2022/08/09 03:14:30;;;;;;;6.97;2.50;;;16.90;99.90;;;;;;5027021;28;20112;-61
2022/08/09 03:17:01;;;;;;;6.85;3.00;;;16.80;99.90;;;;;;5023644;28;20057;-61
2022/08/09 03:19:28;;;;;;;7.00;3.10;;;16.90;99.90;;;;;;5023255;28;20021;-60
2022/08/09 03:21:55;;;;;;;6.97;3.35;;;17.00;99.90;;;;;;5023038;28;20038;-61
2022/08/09 03:24:21;;;;;;;6.35;3.17;;;16.80;99.90;;;;;;5023686;28;20028;-61
2022/08/09 03:26:47;;;;;;;8.02;3.25;;;16.80;99.90;;;;;;5026390;28;20029;-61
2022/08/09 03:29:14;;;;;;;6.68;2.97;;;16.80;99.90;;;;;;5023736;28;20049;-61
2022/08/09 03:31:41;;;;;;;4.85;3.03;;;16.90;99.90;;;;;;5024694;28;20025;-60
2022/08/09 03:34:08;;;;;;;4.75;3.13;;;16.70;99.90;;;;;;5023024;28;20071;-61
2022/08/09 03:36:35;;;;;;;6.03;2.90;;;16.70;99.90;;;;;;5024244;28;20071;-60
2022/08/09 03:39:02;;;;;;;6.60;3.40;;;16.70;99.90;;;;;;5020535;28;20022;-61
2022/08/09 03:41:28;;;;;;;5.80;3.10;;;16.50;99.90;;;;;;5026894;28;20030;-61
2022/08/09 03:43:54;;;;;;;5.55;3.33;;;16.50;99.90;;;;;;5024064;28;20029;-61
2022/08/09 03:46:20;;;;;;;6.20;3.40;;;16.50;99.90;;;;;;5027585;28;20037;-60
2022/08/09 03:48:51;;;;;;;5.18;3.45;;;16.60;99.90;;;;;;5024365;28;20060;-61
2022/08/09 03:51:20;;;;;;;9.25;3.50;;;16.70;99.90;;;;;;5023715;28;20607;-61
2022/08/09 03:53:45;;;;;;;7.97;3.38;;;16.80;99.90;;;;;;5023694;28;20034;-61
2022/08/09 03:56:11;;;;;;;7.88;3.30;;;16.90;99.90;;;;;;5028449;28;20397;-61
2022/08/09 03:58:37;;;;;;;7.43;3.40;;;16.80;99.90;;;;;;5020665;28;20074;-61
2022/08/09 04:01:03;;;;;;;8.95;3.33;;;16.50;99.90;;;;;;5025435;28;20179;-61
2022/08/09 04:03:29;;;;;;;8.45;3.53;;;16.50;99.90;;;;;;5019865;28;20476;-61
2022/08/09 04:05:55;;;;;;;6.65;3.53;;;16.60;99.90;;;;;;5031054;28;20039;-60
2022/08/09 04:08:20;;;;;;;6.45;3.53;;;16.60;99.90;;;;;;5027204;28;20029;-60
2022/08/09 04:10:46;;;;;;;6.10;3.78;;;16.70;99.90;;;;;;5030341;28;20022;-61
2022/08/09 04:13:11;;;;;;;7.85;3.85;;;16.90;99.90;;;;;;5031587;28;20018;-61
2022/08/09 04:15:38;;;;;;;10.70;3.92;;;16.60;99.90;;;;;;5030072;28;20026;-62
2022/08/09 04:18:05;;;;;;;6.95;4.30;;;16.60;99.90;;;;;;5030446;28;20032;-61
2022/08/09 04:20:31;;;;;;;9.73;3.70;;;16.50;99.90;;;;;;5028391;28;20025;-61
2022/08/09 04:22:57;;;;;;;8.48;3.58;;;16.60;99.90;;;;;;5024822;28;20025;-61
2022/08/09 04:25:23;;;;;;;8.65;4.13;;;16.50;99.90;;;;;;5033216;28;20503;-60
2022/08/09 04:27:48;;;;;;;7.40;3.90;;;16.60;99.90;;;;;;5026819;28;20029;-60
2022/08/09 04:30:16;;;;;;;10.82;4.00;;;16.50;99.90;;;;;;5026824;28;20033;-61
2022/08/09 04:32:42;;;;;;;6.85;3.83;;;16.50;99.90;;;;;;5025122;28;20409;-60
2022/08/09 04:35:10;;;;;;;9.10;4.22;;;16.50;99.90;;;;;;5026174;28;20033;-61
2022/08/09 04:37:36;;;;;;;7.85;4.30;;;16.60;99.90;;;;;;5028699;28;20095;-60
2022/08/09 04:40:03;;;;;;;8.88;4.32;;;16.30;99.90;;;;;;5028670;28;20453;-61
2022/08/09 04:42:30;;;;;;;7.40;4.40;;;16.30;99.90;;;;;;5025495;28;20372;-60
2022/08/09 04:44:56;;;;;;;6.80;4.50;;;16.60;99.90;;;;;;5024546;28;20021;-61
2022/08/09 04:47:23;;;;;;;8.75;3.80;;;16.70;99.90;;;;;;5032546;28;20029;-61
2022/08/09 04:49:49;;;;;;;7.15;3.97;;;16.60;99.90;;;;;;5030025;28;20369;-61
2022/08/09 04:52:14;;;;;;;8.63;4.63;;;16.70;99.90;;;;;;5029202;28;20040;-61
2022/08/09 04:54:40;;;;;;;7.65;4.60;;;16.50;99.90;;;;;;5025256;28;20101;-61
2022/08/09 04:57:05;;;;;;;9.88;4.38;;;16.50;99.90;;;;;;5028945;28;20038;-61
2022/08/09 04:59:31;;;;;;;7.53;4.28;;;16.70;99.90;;;;;;5027066;28;20747;-61
2022/08/09 05:01:57;;;;;;;7.13;4.20;;;16.60;99.90;;;;;;5025831;28;20072;-61
2022/08/09 05:04:22;;;;;;;8.00;4.53;;;16.80;99.90;;;;;;5026445;28;20076;-61
2022/08/09 05:06:48;;;;;;;9.18;4.32;;;16.70;99.90;;;;;;5024782;28;20053;-61
2022/08/09 05:09:13;;;;;;;8.27;4.95;;;16.90;99.90;;;;;;5027616;28;20033;-61
2022/08/09 05:11:39;;;;;;;10.85;4.65;;;17.00;99.90;;;;;;5028255;28;20068;-60
2022/08/09 05:14:04;;;;;;;11.20;4.68;;;17.00;99.90;;;;;;5025453;28;20120;-61
2022/08/09 05:16:30;;;;;;;7.68;4.40;;;17.00;99.90;;;;;;5024392;28;20724;-61
2022/08/09 05:18:56;;;;;;;8.05;5.00;;;16.90;99.90;;;;;;5026191;28;20031;-61
2022/08/09 05:21:22;;;;;;;9.38;4.82;;;16.80;99.90;;;;;;5025440;28;20017;-61
2022/08/09 05:23:47;;;;;;;5.57;4.13;;;17.00;99.90;;;;;;5025515;28;20022;-60
2022/08/09 05:26:13;;;;;;;9.52;4.82;;;16.80;99.90;;;;;;5025918;28;20060;-60
2022/08/09 05:28:38;;;;;;;9.43;4.90;;;16.70;99.90;;;;;;5026243;28;20024;-62
2022/08/09 05:31:04;;;;;;;9.98;4.90;;;16.90;99.90;;;;;;5025988;28;20092;-62
2022/08/09 05:33:29;;;;;;;9.35;5.07;;;16.80;99.90;;;;;;5028976;28;20109;-62
2022/08/09 05:35:55;;;;;;;8.07;5.00;;;16.90;99.90;;;;;;5027743;28;20030;-62
2022/08/09 05:38:20;;;;;;;9.00;4.85;;;17.00;99.90;;;;;;5021639;28;20037;-61
2022/08/09 05:40:46;;;;;;;9.77;5.03;;;17.10;99.90;;;;;;5024227;28;20030;-62
2022/08/09 05:43:11;;;;;;;10.82;5.22;;;17.10;99.90;;;;;;5023846;28;20049;-62
2022/08/09 05:45:37;;;;;;;8.25;4.60;;;17.20;99.90;;;;;;5024512;28;20029;-63
2022/08/09 05:48:03;;;;;;;6.03;4.63;;;17.30;99.90;;;;;;5023569;28;20124;-61
2022/08/09 05:50:29;;;;;;;10.43;4.68;;;17.30;99.90;;;;;;5025007;28;20017;-61
2022/08/09 05:52:54;;;;;;;8.65;4.45;;;17.50;99.90;;;;;;5025905;28;20091;-62
2022/08/09 05:55:20;;;;;;;11.43;5.18;;;17.50;99.90;;;;;;5029219;28;20063;-62
2022/08/09 05:57:46;;;;;;;12.13;5.35;;;17.50;99.90;;;;;;5019477;28;20030;-62
2022/08/09 06:00:13;;;;;;;13.73;5.43;;;17.60;99.90;;;;;;5028452;28;20858;-63
2022/08/09 06:02:39;;;;;;;7.60;4.63;;;17.70;99.90;;;;;;5019074;28;20033;-61
2022/08/09 06:05:08;;;;;;;6.68;4.40;;;17.80;99.90;;;;;;5021029;28;20029;-62
2022/08/09 06:07:34;;;;;;;38.20;29.05;;;17.70;99.90;;;;;;5025216;28;20025;-63
2022/08/09 06:10:00;;;;;;;89.97;67.90;;;17.60;99.90;;;;;;5028642;28;20483;-62
2022/08/09 06:12:26;;;;;;;11.25;5.28;;;17.80;99.90;;;;;;5026294;28;20636;-64
2022/08/09 06:14:52;;;;;;;16.90;5.38;;;17.90;99.90;;;;;;5021375;28;20117;-65
2022/08/09 06:17:17;;;;;;;10.80;4.90;;;18.10;99.90;;;;;;5024304;28;20041;-65
2022/08/09 06:19:44;;;;;;;8.98;4.85;;;18.00;99.90;;;;;;5023869;28;20051;-66
2022/08/09 06:22:09;;;;;;;8.38;4.40;;;18.20;99.90;;;;;;5022326;28;20128;-66
2022/08/09 06:24:35;;;;;;;8.45;4.80;;;18.20;99.90;;;;;;5025009;28;20662;-66
2022/08/09 06:27:00;;;;;;;10.02;4.70;;;18.30;99.90;;;;;;5025967;28;20029;-65
2022/08/09 06:29:26;;;;;;;9.70;5.00;;;18.30;99.90;;;;;;5026610;28;20037;-65
2022/08/09 06:31:52;;;;;;;10.77;4.53;;;18.20;99.90;;;;;;5025896;28;20413;-66
2022/08/09 06:34:17;;;;;;;9.43;4.20;;;18.30;99.90;;;;;;5024612;28;20646;-66
2022/08/09 06:36:43;;;;;;;11.35;4.60;;;18.50;99.90;;;;;;5026979;28;20067;-65
2022/08/09 06:39:10;;;;;;;8.98;4.05;;;18.60;99.90;;;;;;5013562;28;20658;-65
2022/08/09 06:41:36;;;;;;;13.90;4.50;;;18.80;99.90;;;;;;5017238;28;20378;-65
2022/08/09 06:44:02;;;;;;;9.30;4.50;;;18.90;99.90;;;;;;5024725;28;20022;-65
2022/08/09 06:46:29;;;;;;;13.00;4.85;;;18.70;99.90;;;;;;5023478;28;20095;-65
2022/08/09 06:48:54;;;;;;;7.15;4.50;;;18.80;99.90;;;;;;5019937;28;20787;-65
2022/08/09 06:51:20;;;;;;;11.05;4.22;;;18.70;99.90;;;;;;5028351;28;20055;-65
2022/08/09 06:53:46;;;;;;;8.75;4.70;;;18.70;99.90;;;;;;5024037;28;20082;-65
2022/08/09 06:56:11;;;;;;;12.25;4.88;;;18.90;99.90;;;;;;5025874;28;20029;-65
2022/08/09 06:58:37;;;;;;;7.65;4.30;;;19.00;99.90;;;;;;5031421;28;20388;-65
2022/08/09 07:01:03;;;;;;;11.05;4.63;;;19.00;99.90;;;;;;5024980;28;20032;-65
2022/08/09 07:03:29;;;;;;;11.68;5.03;;;19.10;99.90;;;;;;5016261;28;20448;-65
2022/08/09 07:05:56;;;;;;;12.25;4.70;;;19.40;99.90;;;;;;5029044;28;20029;-65
2022/08/09 07:08:21;;;;;;;11.35;4.53;;;19.30;99.90;;;;;;5020394;28;20389;-65
2022/08/09 07:10:47;;;;;;;9.68;4.70;;;19.30;99.90;;;;;;5019412;28;20025;-65
2022/08/09 07:13:12;;;;;;;13.00;4.45;;;19.40;99.90;;;;;;5023818;28;20026;-65
2022/08/09 07:15:38;;;;;;;8.55;4.22;;;19.40;99.90;;;;;;5025750;28;20037;-65
2022/08/09 07:18:03;;;;;;;5.60;3.97;;;19.50;99.90;;;;;;5021206;28;20665;-64
2022/08/09 07:20:29;;;;;;;9.05;4.20;;;19.60;99.90;;;;;;5020651;28;20108;-64
2022/08/09 07:22:55;;;;;;;11.00;4.47;;;19.70;99.90;;;;;;5019257;28;20026;-64
2022/08/09 07:25:20;;;;;;;5.97;3.53;;;19.80;99.90;;;;;;5023290;28;20064;-64
2022/08/09 07:27:46;;;;;;;8.98;3.47;;;19.80;99.90;;;;;;5026657;28;20030;-64
2022/08/09 07:30:13;;;;;;;9.50;3.42;;;20.00;99.90;;;;;;5024542;28;20063;-64
2022/08/09 07:32:40;;;;;;;5.90;3.30;;;20.00;99.90;;;;;;5024064;28;20125;-64
2022/08/09 07:35:08;;;;;;;6.75;3.78;;;20.10;99.90;;;;;;5024444;28;20087;-64
2022/08/09 07:37:34;;;;;;;12.45;3.88;;;20.10;99.90;;;;;;5012640;28;20894;-64
2022/08/09 07:39:59;;;;;;;8.98;3.88;;;20.20;99.90;;;;;;5023159;28;20067;-63
2022/08/09 07:42:25;;;;;;;8.70;4.68;;;20.30;99.90;;;;;;5025862;28;20480;-64
2022/08/09 07:44:50;;;;;;;9.93;4.68;;;20.40;99.90;;;;;;5028020;28;20030;-64
2022/08/09 07:47:17;;;;;;;9.07;4.60;;;20.40;99.90;;;;;;5019708;28;20033;-64
2022/08/09 07:49:43;;;;;;;9.98;4.40;;;20.50;99.90;;;;;;5025597;28;20013;-64
2022/08/09 07:52:08;;;;;;;10.40;4.10;;;20.20;99.90;;;;;;5016495;28;20361;-65
2022/08/09 07:54:34;;;;;;;8.70;4.32;;;20.40;99.90;;;;;;5017877;28;20092;-64
2022/08/09 07:57:00;;;;;;;6.43;3.72;;;20.40;99.90;;;;;;5023392;28;20022;-66
2022/08/09 07:59:26;;;;;;;9.10;4.70;;;20.50;99.90;;;;;;5024360;28;20080;-65
2022/08/09 08:01:54;;;;;;;11.68;4.30;;;20.80;99.90;;;;;;5020925;28;20061;-65
2022/08/09 08:04:20;;;;;;;8.55;4.05;;;20.90;99.90;;;;;;5027663;28;20037;-64
2022/08/09 08:06:46;;;;;;;10.18;4.50;;;21.10;99.90;;;;;;5022708;28;20033;-64
2022/08/09 08:09:11;;;;;;;9.20;4.15;;;21.00;99.90;;;;;;5019218;28;20025;-64
2022/08/09 08:11:37;;;;;;;10.75;3.70;;;21.30;99.90;;;;;;5022718;28;20083;-64
2022/08/09 08:14:03;;;;;;;8.77;4.25;;;21.20;99.90;;;;;;5022801;28;20305;-65
2022/08/09 08:16:29;;;;;;;12.48;4.30;;;21.10;99.90;;;;;;5023540;28;20061;-64
2022/08/09 08:18:56;;;;;;;8.15;4.43;;;;;;;;;;5026515;28;20037;-65
2022/08/09 08:21:23;;;;;;;11.95;4.40;;;21.40;99.90;;;;;;5021417;28;20361;-64
2022/08/09 08:23:49;;;;;;;10.85;5.15;;;20.70;99.90;;;;;;5020106;28;20025;-64
2022/08/09 08:26:14;;;;;;;12.00;5.10;;;21.40;99.90;;;;;;5027400;28;20415;-65
2022/08/09 08:28:42;;;;;;;12.73;4.95;;;21.20;99.90;;;;;;5021120;28;20890;-64
2022/08/09 08:31:08;;;;;;;10.60;4.97;;;21.20;99.90;;;;;;5030629;28;20053;-65
2022/08/09 08:33:34;;;;;;;9.30;4.63;;;21.40;99.90;;;;;;5023708;28;20021;-65
2022/08/09 08:35:59;;;;;;;11.40;4.90;;;21.30;99.90;;;;;;5027569;28;20032;-64
2022/08/09 08:38:25;;;;;;;12.93;5.07;;;21.50;99.90;;;;;;5019510;28;20125;-64
2022/08/09 08:40:54;;;;;;;8.73;4.45;;;21.60;99.90;;;;;;5026166;28;20028;-65
2022/08/09 08:43:20;;;;;;;11.05;4.90;;;21.60;99.90;;;;;;5022913;28;20028;-65
2022/08/09 08:45:53;;;;;;;8.05;4.30;;;21.80;99.90;;;;;;5021773;28;20029;-65
2022/08/09 08:48:19;;;;;;;11.00;4.43;;;21.70;99.90;;;;;;5027003;28;20676;-65
2022/08/09 08:50:46;;;;;;;11.68;4.53;;;21.90;99.90;;;;;;5027136;28;20029;-65
2022/08/09 08:53:13;;;;;;;11.30;4.15;;;22.10;99.90;;;;;;5028188;28;20033;-65
2022/08/09 08:55:43;;;;;;;11.85;4.85;;;22.10;99.90;;;;;;5027288;28;20032;-63
2022/08/09 08:58:10;;;;;;;8.95;4.00;;;22.10;99.90;;;;;;5027361;28;20025;-63
2022/08/09 09:00:35;;;;;;;8.73;4.10;;;22.10;99.90;;;;;;5028959;28;20491;-64
2022/08/09 09:03:03;;;;;;;7.45;3.85;;;22.30;99.90;;;;;;5024809;28;20034;-64
2022/08/09 09:05:29;;;;;;;11.52;5.07;;;22.20;99.90;;;;;;5028647;28;20041;-65
2022/08/09 09:07:56;;;;;;;12.82;4.40;;;22.30;99.90;;;;;;5024778;28;20346;-64
2022/08/09 09:10:25;;;;;;;8.60;3.85;;;22.30;99.90;;;;;;5032050;28;20525;-65
2022/08/09 09:12:51;;;;;;;6.68;3.40;;;22.40;99.90;;;;;;5025093;28;20022;-63
2022/08/09 09:15:17;;;;;;;7.45;3.90;;;22.80;99.90;;;;;;5027248;28;20029;-64
2022/08/09 09:17:43;;;;;;;13.38;3.88;;;22.90;99.90;;;;;;5029243;28;20032;-65
2022/08/09 09:20:11;;;;;;;9.00;3.25;;;22.70;99.90;;;;;;5017746;28;20033;-64
2022/08/09 09:22:57;;;;;;;8.60;3.67;;;22.80;99.90;;;;;;5016888;28;21188;-64
2022/08/09 09:25:41;;;;;;;5.35;2.85;;;22.70;99.90;;;;;;5022038;28;20041;-63
2022/08/09 09:28:08;;;;;;;12.18;3.45;;;22.90;99.90;;;;;;5025080;28;20068;-66
2022/08/09 09:30:52;;;;;;;7.80;3.42;;;22.90;99.90;;;;;;5011957;28;20586;-64
2022/08/09 09:33:17;;;;;;;6.60;3.58;;;23.00;99.90;;;;;;5019680;28;20015;-64
2022/08/09 09:35:57;;;;;;;5.78;3.13;;;23.10;99.90;;;;;;5027479;28;20025;-64
2022/08/09 09:38:38;;;;;;;7.30;2.92;;;23.00;99.90;;;;;;5020115;28;20033;-64
2022/08/09 09:41:03;;;;;;;7.38;3.22;;;23.20;99.90;;;;;;5025813;28;20029;-65
2022/08/09 09:43:31;;;;;;;5.47;2.78;;;23.40;99.90;;;;;;5026230;28;20123;-63
2022/08/09 09:45:57;;;;;;;5.63;2.90;;;23.30;99.90;;;;;;5032311;28;20029;-64
2022/08/09 09:48:23;;;;;;;8.70;3.22;;;23.50;99.90;;;;;;5027592;28;20023;-65
2022/08/09 09:50:50;;;;;;;6.78;3.10;;;23.50;99.90;;;;;;5027178;28;20029;-64
2022/08/09 09:53:19;;;;;;;7.47;3.08;;;23.50;99.90;;;;;;5022371;28;20032;-63
2022/08/09 09:55:59;;;;;;;7.30;3.08;;;23.60;99.90;;;;;;5018525;28;20032;-65
2022/08/09 09:58:45;;;;;;;8.00;3.25;;;23.60;99.90;;;;;;5023613;28;20503;-63
2022/08/09 10:01:21;;;;;;;9.23;3.13;;;23.50;99.90;;;;;;5017034;28;20021;-64
2022/08/09 10:03:50;;;;;;;6.97;3.03;;;23.70;99.90;;;;;;5032986;28;20374;-64
2022/08/09 10:06:16;;;;;;;9.95;2.90;;;23.70;99.90;;;;;;5021223;28;20399;-64
2022/08/09 10:08:43;;;;;;;7.40;3.03;;;23.70;99.90;;;;;;5029153;28;20029;-63
2022/08/09 10:11:17;;;;;;;7.28;2.92;;;23.70;99.90;;;;;;5034684;28;20029;-65
2022/08/09 10:13:43;;;;;;;5.07;2.53;;;23.70;99.90;;;;;;5029272;28;20033;-64
2022/08/09 10:16:09;;;;;;;10.52;5.55;;;24.00;99.90;;;;;;5031235;28;20426;-61
2022/08/09 10:18:35;;;;;;;5.47;2.88;;;23.90;99.90;;;;;;5027512;28;20405;-64
2022/08/09 10:21:08;;;;;;;6.75;3.08;;;24.00;99.90;;;;;;5022185;28;20040;-65
2022/08/09 10:23:35;;;;;;;8.02;3.50;;;24.10;99.90;;;;;;5026133;28;20029;-64
2022/08/09 10:26:01;;;;;;;7.93;3.00;;;23.90;99.90;;;;;;5023149;28;20040;-65
2022/08/09 10:28:29;;;;;;;7.25;3.28;;;23.90;99.90;;;;;;5019811;28;20453;-64
2022/08/09 10:30:55;;;;;;;5.75;3.42;;;24.00;99.90;;;;;;5022259;28;20021;-64
2022/08/09 10:33:23;;;;;;;6.82;3.40;;;24.20;99.90;;;;;;5016846;28;20550;-65
2022/08/09 10:35:49;;;;;;;11.50;3.00;;;24.10;99.90;;;;;;5017921;28;20025;-64
2022/08/09 10:38:17;;;;;;;5.68;3.20;;;24.10;99.90;;;;;;5020098;28;20033;-65
2022/08/09 10:40:44;;;;;;;6.38;2.95;;;24.10;99.90;;;;;;5020175;28;20053;-64
2022/08/09 10:43:10;;;;;;;8.18;2.80;;;24.20;99.90;;;;;;5023390;28;20689;-64
2022/08/09 10:45:36;;;;;;;5.32;3.00;;;24.20;99.90;;;;;;5025967;28;20030;-63
2022/08/09 10:48:09;;;;;;;6.80;3.08;;;24.10;99.90;;;;;;5018729;28;20103;-63
2022/08/09 10:51:08;;;;;;;5.22;3.67;;;24.30;99.90;;;;;;5024639;28;20053;-63
2022/08/09 10:53:52;;;;;;;4.35;3.17;;;24.30;99.90;;;;;;5015606;28;20033;-65
2022/08/09 10:56:24;;;;;;;7.35;3.35;;;24.40;99.90;;;;;;5019023;28;20495;-64
2022/08/09 10:58:51;;;;;;;8.80;3.67;;;24.40;99.90;;;;;;5022086;28;20037;-63
2022/08/09 11:01:32;;;;;;;5.75;3.30;;;24.40;99.90;;;;;;5024813;28;20382;-63
2022/08/09 11:04:21;;;;;;;4.63;2.95;;;24.40;99.90;;;;;;5023796;28;20053;-64
2022/08/09 11:07:08;;;;;;;5.05;3.30;;;24.30;99.90;;;;;;5025892;28;20022;-65
2022/08/09 11:09:37;;;;;;;6.97;3.65;;;24.60;99.90;;;;;;5014184;28;20021;-63
2022/08/09 11:12:17;;;;;;;9.70;3.20;;;24.50;99.90;;;;;;5029663;28;20018;-64
2022/08/09 11:14:54;;;;;;;8.77;3.40;;;24.70;99.90;;;;;;5021257;28;20025;-64
2022/08/09 11:17:20;;;;;;;7.65;2.85;;;24.70;99.90;;;;;;5025623;28;20547;-63
2022/08/09 11:20:00;;;;;;;6.85;3.10;;;24.80;99.90;;;;;;5017336;28;20039;-65
2022/08/09 11:22:50;;;;;;;8.82;3.60;;;24.60;99.90;;;;;;5023426;28;20504;-64
2022/08/09 11:25:26;;;;;;;4.93;3.30;;;24.70;99.90;;;;;;5019910;28;20034;-65
2022/08/09 11:27:56;;;;;;;8.63;3.13;;;24.60;99.90;;;;;;5019356;28;20035;-64
2022/08/09 11:30:22;;;;;;;5.05;3.45;;;24.80;99.90;;;;;;5021138;28;20112;-64
2022/08/09 11:32:50;;;;;;;6.28;3.20;;;24.90;99.90;;;;;;5023867;28;20625;-63
2022/08/09 11:35:18;;;;;;;8.02;3.28;;;24.60;99.90;;;;;;5029425;28;20040;-63
2022/08/09 11:37:47;;;;;;;6.05;3.53;;;24.80;99.90;;;;;;5020611;28;20025;-63
2022/08/09 11:40:22;;;;;;;6.40;2.95;;;24.90;99.90;;;;;;5023480;28;20117;-65
2022/08/09 11:42:50;;;;;;;6.38;3.00;;;25.10;99.90;;;;;;5017503;28;20017;-63
2022/08/09 11:45:39;;;;;;;5.78;3.15;;;25.00;99.90;;;;;;5024056;28;20380;-63
2022/08/09 11:48:10;;;;;;;5.97;2.95;;;25.00;99.90;;;;;;5020614;28;20111;-63
2022/08/09 11:51:01;;;;;;;5.28;3.03;;;25.00;99.90;;;;;;5025535;28;20029;-64
2022/08/09 11:53:33;;;;;;;4.38;2.83;;;25.10;99.90;;;;;;5021443;28;20498;-64
2022/08/09 11:56:15;;;;;;;6.68;3.00;;;23.00;99.90;;;;;;5022236;28;20026;-64
2022/08/09 11:58:45;;;;;;;5.18;3.13;;;25.40;99.90;;;;;;5020956;28;20029;-64
2022/08/09 12:01:12;;;;;;;5.75;2.92;;;25.90;99.90;;;;;;5021490;28;20372;-63
2022/08/09 12:03:39;;;;;;;5.10;2.90;;;25.00;99.90;;;;;;5027188;28;20041;-63
2022/08/09 12:06:16;;;;;;;5.20;2.90;;;25.20;99.90;;;;;;5027293;28;20346;-64
2022/08/09 12:08:51;;;;;;;5.43;2.95;;;25.30;99.90;;;;;;5024051;28;20021;-64
2022/08/09 12:11:23;;;;;;;5.07;2.83;;;25.50;99.90;;;;;;5017339;28;20060;-62
2022/08/09 12:14:03;;;;;;;4.25;3.00;;;25.30;99.90;;;;;;5026809;28;20443;-63
2022/08/09 12:16:34;;;;;;;9.90;3.20;;;25.40;99.90;;;;;;5013630;28;20033;-65
2022/08/09 12:19:01;;;;;;;8.13;2.90;;;25.40;99.90;;;;;;5022656;28;20548;-65
2022/08/09 12:21:34;;;;;;;6.35;3.25;;;25.40;99.90;;;;;;5028988;28;20049;-63
2022/08/09 12:24:03;;;;;;;10.07;2.65;;;25.40;99.90;;;;;;5023425;28;20028;-63
2022/08/09 12:26:40;;;;;;;8.18;3.20;;;25.40;99.90;;;;;;5024911;28;20056;-64
2022/08/09 12:29:06;;;;;;;5.55;2.88;;;25.50;99.90;;;;;;5028527;28;20026;-64
2022/08/09 12:31:32;;;;;;;4.55;2.97;;;25.60;99.90;;;;;;5027707;28;20629;-62
2022/08/09 12:33:58;;;;;;;5.18;2.78;;;25.70;99.90;;;;;;5028269;28;20022;-63
2022/08/09 12:36:24;;;;;;;8.35;3.33;;;25.70;99.90;;;;;;5028183;28;20029;-64
2022/08/09 12:38:51;;;;;;;6.13;3.22;;;25.60;99.90;;;;;;5017143;28;20022;-63
2022/08/09 12:41:31;;;;;;;6.70;3.10;;;25.50;99.90;;;;;;5028152;28;20401;-64
2022/08/09 12:43:59;;;;;;;5.32;3.00;;;25.40;99.90;;;;;;5030954;28;20506;-64
2022/08/09 12:46:26;;;;;;;6.07;3.25;;;25.50;99.90;;;;;;5032211;28;20040;-63
2022/08/09 12:48:54;;;;;;;6.03;2.80;;;25.60;99.90;;;;;;5025225;28;20024;-63
2022/08/09 12:51:21;;;;;;;5.80;2.83;;;25.60;99.90;;;;;;5026170;28;20099;-64
2022/08/09 12:53:57;;;;;;;42.38;29.20;;;25.60;99.90;;;;;;5026932;28;20032;-65
2022/08/09 12:56:23;;;;;;;7.97;2.83;;;25.60;99.90;;;;;;5025437;28;20040;-64